createdAt,value
2022-10-26T00:01:07.791Z,98686.70
2022-10-26T00:06:15.049Z,98694.55
2022-10-26T00:11:19.983Z,98693.85
2022-10-26T00:16:25.046Z,98692.45
2022-10-26T00:21:29.237Z,98697.77
2022-10-26T00:26:33.366Z,98694.63
2022-10-26T00:31:37.386Z,98703.20
2022-10-26T00:36:41.518Z,98701.00
2022-10-26T00:41:45.675Z,98701.15
2022-10-26T00:46:50.187Z,98701.08
2022-10-26T00:51:54.724Z,98692.67
2022-10-26T00:56:59.266Z,98694.64
2022-10-26T01:02:03.307Z,98691.89
2022-10-26T01:07:08.928Z,98692.83
2022-10-26T01:12:13.426Z,98689.22
2022-10-26T01:17:26.950Z,98695.34
2022-10-26T01:22:35.267Z,98688.76
2022-10-26T01:27:39.967Z,98683.02
2022-10-26T01:32:46.828Z,98685.46
2022-10-26T01:38:06.186Z,98681.77
2022-10-26T01:43:12.546Z,98692.51
2022-10-26T01:48:19.785Z,98690.16
2022-10-26T01:53:23.800Z,98693.92
2022-10-26T01:58:47.687Z,98697.77
2022-10-26T02:03:58.201Z,98710.02
2022-10-26T02:09:07.060Z,98701.63
2022-10-26T02:19:28.167Z,98704.84
2022-10-26T02:24:33.607Z,98701.94
2022-10-26T02:29:38.289Z,98698.95
2022-10-26T02:34:45.488Z,98697.38
2022-10-26T02:39:51.447Z,98703.03
2022-10-26T02:44:57.547Z,98707.10
2022-10-26T02:50:01.986Z,98707.98
2022-10-26T02:55:10.427Z,98709.46
2022-10-26T03:00:16.057Z,98709.47
2022-10-26T03:05:20.987Z,98710.64
2022-10-26T03:10:25.446Z,98710.48
2022-10-26T03:15:29.597Z,98715.90
2022-10-26T03:20:33.826Z,98715.13
2022-10-26T03:25:38.041Z,98714.80
2022-10-26T03:30:42.273Z,98715.28
2022-10-26T03:35:46.188Z,98715.75
2022-10-26T03:40:50.546Z,98715.20
2022-10-26T03:45:54.881Z,98725.57
2022-10-26T03:50:59.680Z,98725.17
2022-10-26T03:56:04.341Z,98727.84
2022-10-26T04:01:08.756Z,98731.05
2022-10-26T04:06:13.007Z,98731.05
2022-10-26T04:11:17.131Z,98727.67
2022-10-26T04:16:21.068Z,98735.45
2022-10-26T04:21:24.992Z,98723.42
2022-10-26T04:26:29.419Z,98736.92
2022-10-26T04:31:34.217Z,98739.06
2022-10-26T04:36:38.426Z,98736.06
2022-10-26T04:41:42.637Z,98740.31
2022-10-26T04:46:46.758Z,98739.77
2022-10-26T04:51:50.847Z,98740.15
2022-10-26T04:56:55.258Z,98740.00
2022-10-26T05:01:59.768Z,98739.45
2022-10-26T05:07:03.951Z,98736.46
2022-10-26T05:12:08.350Z,98740.16
2022-10-26T05:17:12.379Z,98737.18
2022-10-26T05:22:16.491Z,98737.89
2022-10-26T05:27:20.607Z,98740.70
2022-10-26T05:32:24.939Z,98744.55
2022-10-26T05:37:29.811Z,98744.00
2022-10-26T05:42:33.667Z,98746.27
2022-10-26T05:47:39.765Z,98743.22
2022-10-26T05:52:44.762Z,98756.88
2022-10-26T05:57:49.581Z,98756.48
2022-10-26T06:03:08.965Z,98760.88
2022-10-26T06:08:13.827Z,98764.88
2022-10-26T06:13:18.647Z,98769.20
2022-10-26T06:18:27.851Z,98771.48
2022-10-26T06:23:39.928Z,98776.41
2022-10-26T06:28:50.861Z,98780.51
2022-10-26T06:33:58.927Z,98786.86
2022-10-26T06:39:04.867Z,98788.83
2022-10-26T06:44:13.127Z,98792.29
2022-10-26T06:49:20.020Z,98800.61
2022-10-26T06:54:28.787Z,98798.66
2022-10-26T06:59:38.266Z,98805.64
2022-10-26T07:04:42.537Z,98809.64
2022-10-26T07:09:46.586Z,98807.84
2022-10-26T07:14:50.726Z,98806.73
2022-10-26T07:19:54.973Z,98809.80
2022-10-26T07:25:02.050Z,98812.71
2022-10-26T07:30:08.278Z,98816.16
2022-10-26T07:35:12.816Z,98825.11
2022-10-26T07:40:16.806Z,98832.27
2022-10-26T07:45:20.777Z,98832.89
2022-10-26T07:50:25.339Z,98828.50
2022-10-26T07:55:29.570Z,98822.52
2022-10-26T08:00:33.752Z,98823.94
2022-10-26T08:05:37.708Z,98826.13
2022-10-26T08:10:44.247Z,98829.98
2022-10-26T08:15:48.540Z,98833.91
2022-10-26T08:20:52.774Z,98836.11
2022-10-26T08:25:59.940Z,98827.24
2022-10-26T08:31:04.829Z,98831.02
2022-10-26T08:36:09.047Z,98823.41
2022-10-26T08:41:14.618Z,98824.90
2022-10-26T08:46:22.437Z,98823.73
2022-10-26T08:51:28.607Z,98824.27
2022-10-26T08:56:35.938Z,98824.60
2022-10-26T09:01:39.958Z,98825.55
2022-10-26T09:06:49.794Z,98827.36
2022-10-26T09:11:58.638Z,98827.91
2022-10-26T09:17:08.736Z,98826.90
2022-10-26T09:22:16.655Z,98830.45
2022-10-26T09:27:21.755Z,98829.45
2022-10-26T09:32:27.727Z,98834.63
2022-10-26T09:37:33.126Z,98836.20
2022-10-26T09:42:41.108Z,98832.27
2022-10-26T09:47:47.877Z,98836.66
2022-10-26T09:52:52.354Z,98837.38
2022-10-26T09:57:58.887Z,98836.20
2022-10-26T10:03:03.358Z,98835.64
2022-10-26T10:08:12.289Z,98839.58
2022-10-26T10:13:17.769Z,98833.92
2022-10-26T10:18:22.588Z,98834.47
2022-10-26T10:23:28.468Z,98826.52
2022-10-26T10:28:33.061Z,98831.17
2022-10-26T10:33:38.680Z,98833.44
2022-10-26T10:38:43.607Z,98832.98
2022-10-26T10:43:49.007Z,98833.92
2022-10-26T10:48:55.940Z,98833.76
2022-10-26T10:54:00.148Z,98834.39
2022-10-26T10:59:12.866Z,98831.48
2022-10-26T11:04:26.319Z,98825.98
2022-10-26T11:09:32.476Z,98827.56
2022-10-26T11:14:39.386Z,98831.02
2022-10-26T11:19:46.180Z,98832.98
2022-10-26T11:24:55.435Z,98828.88
2022-10-26T11:30:03.136Z,98832.98
2022-10-26T11:35:12.709Z,98834.79
2022-10-26T11:40:22.867Z,98836.11
2022-10-26T11:45:29.488Z,98830.70
2022-10-26T11:50:35.506Z,98834.70
2022-10-26T11:55:40.015Z,98835.96
2022-10-26T12:00:47.877Z,98827.33
2022-10-26T12:05:52.735Z,98827.47
2022-10-26T12:11:02.070Z,98829.13
2022-10-26T12:16:10.296Z,98828.81
2022-10-26T12:21:14.788Z,98825.98
2022-10-26T12:26:48.268Z,98834.54
2022-10-26T12:31:52.558Z,98829.26
2022-10-26T12:37:22.846Z,98828.88
2022-10-26T12:42:30.356Z,98832.88
2022-10-26T12:47:52.791Z,98829.64
2022-10-26T12:52:57.876Z,98828.39
2022-10-26T12:58:07.709Z,98825.72
2022-10-26T13:03:19.627Z,98818.65
2022-10-26T13:08:24.377Z,98817.46
2022-10-26T13:13:31.590Z,98816.04
2022-10-26T13:18:42.867Z,98814.86
2022-10-26T13:23:48.228Z,98812.44
2022-10-26T13:28:52.620Z,98815.73
2022-10-26T13:33:58.196Z,98819.04
2022-10-26T13:39:04.493Z,98820.21
2022-10-26T13:44:16.823Z,98822.88
2022-10-26T13:49:25.259Z,98822.25
2022-10-26T13:54:34.003Z,98825.23
2022-10-26T13:59:39.561Z,98822.64
2022-10-26T14:04:45.606Z,98826.34
2022-10-26T14:09:51.967Z,98821.31
2022-10-26T14:15:03.762Z,98820.68
2022-10-26T14:20:17.992Z,98823.11
2022-10-26T14:25:35.731Z,98820.61
2022-10-26T14:30:46.853Z,98828.77
2022-10-26T14:35:51.159Z,98827.52
2022-10-26T14:40:56.286Z,98829.80
2022-10-26T14:46:00.457Z,98833.88
2022-10-26T14:51:07.630Z,98834.73
2022-10-26T14:56:25.219Z,98841.42
2022-10-26T15:01:32.115Z,98850.85
2022-10-26T15:06:47.207Z,98846.52
2022-10-26T15:11:51.707Z,98848.02
2022-10-26T15:16:57.208Z,98854.86
2022-10-26T15:22:01.296Z,98853.13
2022-10-26T15:27:05.802Z,98860.04
2022-10-26T15:32:20.802Z,98861.45
2022-10-26T15:37:24.987Z,98869.70
2022-10-26T15:42:29.277Z,98877.86
2022-10-26T15:47:34.027Z,98881.95
2022-10-26T15:52:38.170Z,98881.95
2022-10-26T15:57:42.596Z,98885.80
2022-10-26T16:02:46.750Z,98892.88
2022-10-26T16:07:51.216Z,98895.54
2022-10-26T16:12:55.889Z,98901.20
2022-10-26T16:18:00.238Z,98904.34
2022-10-26T16:23:06.581Z,98905.35
2022-10-26T16:28:11.890Z,98907.77
2022-10-26T16:33:16.000Z,98907.31
2022-10-26T16:38:20.336Z,98912.41
2022-10-26T16:43:24.767Z,98911.15
2022-10-26T16:48:28.788Z,98918.45
2022-10-26T16:53:32.786Z,98918.14
2022-10-26T16:58:37.720Z,98923.41
2022-10-26T17:03:41.827Z,98925.69
2022-10-26T17:08:46.135Z,98928.43
2022-10-26T17:13:53.836Z,98927.42
2022-10-26T17:18:57.971Z,98931.97
2022-10-26T17:24:02.680Z,98936.21
2022-10-26T17:29:07.359Z,98939.42
2022-10-26T17:34:11.706Z,98949.27
2022-10-26T17:39:16.066Z,98962.45
2022-10-26T17:44:19.908Z,98964.80
2022-10-26T17:49:26.808Z,98966.52
2022-10-26T17:54:32.228Z,98969.98
2022-10-26T17:59:36.328Z,98974.15
2022-10-26T18:04:40.357Z,98976.35
2022-10-26T18:09:44.687Z,98976.81
2022-10-26T18:14:48.977Z,98987.18
2022-10-26T18:19:53.126Z,98994.25
2022-10-26T18:24:57.237Z,99001.56
2022-10-26T18:30:01.437Z,99010.76
2022-10-26T18:35:06.647Z,99013.41
2022-10-26T18:40:12.287Z,99011.69
2022-10-26T18:45:16.668Z,99018.77
2022-10-26T18:50:21.207Z,99022.22
2022-10-26T18:55:25.619Z,99024.89
2022-10-26T19:00:29.668Z,99027.09
2022-10-26T19:05:34.089Z,99029.21
2022-10-26T19:10:38.039Z,99030.30
2022-10-26T19:15:42.176Z,99038.33
2022-10-26T19:20:47.405Z,99047.98
2022-10-26T19:25:55.901Z,99052.08
2022-10-26T19:31:00.379Z,99052.38
2022-10-26T19:36:05.901Z,99051.20
2022-10-26T19:41:11.626Z,99054.42
2022-10-26T19:46:16.607Z,99060.46
2022-10-26T19:51:21.007Z,99063.77
2022-10-26T19:56:25.527Z,99069.02
2022-10-26T20:01:29.629Z,99083.64
2022-10-26T20:06:34.132Z,99090.86
2022-10-26T20:11:41.609Z,99092.36
2022-10-26T20:16:45.288Z,99096.52
2022-10-26T20:21:49.148Z,99095.16
2022-10-26T20:26:53.379Z,99099.02
2022-10-26T20:31:59.006Z,99101.06
2022-10-26T20:37:03.485Z,99100.29
2022-10-26T20:42:17.131Z,99103.73
2022-10-26T20:47:21.908Z,99111.98
2022-10-26T20:52:30.410Z,99111.90
2022-10-26T20:57:35.227Z,99113.63
2022-10-26T21:02:39.407Z,99118.75
2022-10-26T21:07:43.617Z,99123.22
2022-10-26T21:12:48.476Z,99119.76
2022-10-26T21:17:53.216Z,99124.16
2022-10-26T21:22:57.267Z,99126.98
2022-10-26T21:28:01.367Z,99124.94
2022-10-26T21:33:05.489Z,99130.73
2022-10-26T21:38:09.168Z,99129.02
2022-10-26T21:43:13.274Z,99132.78
2022-10-26T21:48:17.567Z,99138.91
2022-10-26T21:53:22.229Z,99135.38
2022-10-26T21:58:26.338Z,99130.82
2022-10-26T22:03:30.717Z,99138.68
2022-10-26T22:08:34.841Z,99142.29
2022-10-26T22:13:39.037Z,99144.64
2022-10-26T22:18:44.151Z,99143.54
2022-10-26T22:23:48.772Z,99135.05
2022-10-26T22:28:53.589Z,99140.95
2022-10-26T22:34:00.853Z,99149.98
2022-10-26T22:39:09.012Z,99151.02
2022-10-26T22:44:13.261Z,99151.34
2022-10-26T22:49:17.037Z,99156.88
2022-10-26T22:54:21.488Z,99160.11
2022-10-26T22:59:25.617Z,99166.17
2022-10-26T23:04:29.857Z,99168.98
2022-10-26T23:09:33.989Z,99164.75
2022-10-26T23:14:38.447Z,99165.60
2022-10-26T23:19:42.800Z,99166.48
2022-10-26T23:24:47.122Z,99160.27
2022-10-26T23:29:51.127Z,99159.02
2022-10-26T23:34:55.371Z,99162.85
2022-10-26T23:39:59.367Z,99163.80
2022-10-26T23:45:03.742Z,99163.56
2022-10-26T23:50:08.568Z,99161.21
2022-10-26T23:55:12.783Z,99162.07
